Airfield :







YOU CAN JOIN US ON...

 
LOGIN :

Register | Disclaimer

   EN    FR    IT 

 









Legend :    VFR   Marginal VFR   IFR   Intensive IFR   Very Intensive IFR
Visi :
Ceiling :
>= 8 km
>= 3000ft
5 to 8 km
1000 to 3000 ft
1500m to 5 km
500 to 1000 ft
800 to 1500m
200 to 500 ft
< 800m
< 200 ft
Symbols :   Thunderstorms  Fog  Heavy snow  Heavy precipitations  Wind > 20 kt






- Airport Elevation : 234 ft
- IATA code : PBG


KPBG - Plattsburgh International

CURRENT METAR :
  • 252353Z AUTO 32004KT 9SM CLR 24/18 A2978 RMK AO2 SLP082 T02440178 10294 20244 53008

EXPIRED METARs :
  • 252253Z AUTO 29003KT 10SM CLR 26/19 A2976 RMK AO2 SLP077 T02610189
  • 252153Z AUTO 26005KT 10SM BKN060 29/18 A2975 RMK AO2 SLP073 T02890178

TAF KPBG
Valid from the 25 at 23:00 until the 27 at 00:00 UTC


252324Z 2523/2624 VRB03KT P6SM FEW250
FM261300 15005KT 6SM HZ FEW250
FM261500 13007KT 6SM HZ FEW250
FM262300 VRB04KT 6SM HZ SCT200
KZBW FIR / North America



MET'MAP, your aeronautical weather chart ! - Copyright ORBIFLY December 2007 - Disclaimer

ORBIFLY MET'MAP TEAM :

Programming & Development : Alexandra Zaïnal
Concept & original design : Baudouin d'Aumeries
Assistance for programming : Marc-Olivier Méhu
Technical & hardware support : Manuel Goepfert

Contact : metmap@orbifly.com




SOURCES & CREDITS :

   NOAA